Time;durP1;ratioP1;P1;durP2;ratioP2;P2;SDS_P1;SDS_P2;PMS_P1;PMS_P2;Temp;Humidity;BMP_temperature;BMP_pressure;BME280_temperature;BME280_humidity;BME280_pressure;Samples;Min_cycle;Max_cycle;Signal;HPM_P1;HPM_P2
2021/07/18 00:00:48;;;;;;;;;;;;;;;27.42;38.43;99840.34;5098525;28;757;-40
2021/07/18 00:03:14;;;;;;;;;;;;;;;27.39;38.41;99838.88;5098911;28;826;-40
2021/07/18 00:05:39;;;;;;;;;;;;;;;27.41;38.49;99833.25;5098568;28;814;-41
2021/07/18 00:08:05;;;;;;;;;;;;;;;27.46;38.26;99835.38;5098333;28;800;-30
2021/07/18 00:10:30;;;;;;;;;;;;;;;27.49;38.20;99833.06;5080093;28;1981;-41
2021/07/18 00:12:55;;;;;;;;;;;;;;;27.45;38.41;99842.63;5098245;28;923;-37
2021/07/18 00:15:21;;;;;;;;;;;;;;;27.43;38.53;99833.06;5098787;28;775;-42
2021/07/18 00:17:46;;;;;;;;;;;;;;;27.48;38.57;99838.66;5098602;28;747;-32
2021/07/18 00:20:12;;;;;;;;;;;;;;;27.49;38.30;99827.66;5098246;28;906;-41
2021/07/18 00:22:37;;;;;;;;;;;;;;;27.47;38.34;99831.63;5098212;28;660;-41
2021/07/18 00:25:03;;;;;;;;;;;;;;;27.45;38.26;99837.22;5098488;28;754;-33
2021/07/18 00:27:28;;;;;;;;;;;;;;;27.44;38.40;99835.56;5098210;28;907;-35
2021/07/18 00:29:54;;;;;;;;;;;;;;;27.51;38.23;99836.38;5098590;28;1972;-32
2021/07/18 00:32:19;;;;;;;;;;;;;;;27.37;38.31;99834.72;5098363;28;747;-40
2021/07/18 00:34:44;;;;;;;;;;;;;;;27.40;38.17;99839.72;5098494;28;855;-41
2021/07/18 00:37:09;;;;;;;;;;;;;;;27.41;38.36;99835.16;5097933;28;862;-41
2021/07/18 00:39:35;;;;;;;;;;;;;;;27.41;38.24;99835.16;5098475;28;764;-31
2021/07/18 00:42:00;;;;;;;;;;;;;;;27.51;38.21;99836.38;5087147;28;942;-40
2021/07/18 00:44:25;;;;;;;;;;;;;;;27.46;38.29;99828.06;5077828;28;780;-34
2021/07/18 00:46:51;;;;;;;;;;;;;;;27.40;38.38;99826.22;5078028;28;1147;-41
2021/07/18 00:49:16;;;;;;;;;;;;;;;27.49;38.19;99818.75;5098222;28;815;-41
2021/07/18 00:51:41;;;;;;;;;;;;;;;27.45;38.11;99814.78;5097645;28;1967;-42
2021/07/18 00:54:06;;;;;;;;;;;;;;;27.46;38.25;99819.97;5098156;28;742;-34
2021/07/18 00:56:32;;;;;;;;;;;;;;;27.46;38.04;99809.16;5104425;28;951;-30
2021/07/18 00:58:58;;;;;;;;;;;;;;;27.40;38.11;99810.00;5099245;28;811;-42
2021/07/18 01:01:23;;;;;;;;;;;;;;;27.44;38.06;99797.75;5118374;28;811;-34
2021/07/18 01:03:48;;;;;;;;;;;;;;;27.45;38.05;99810.22;5118206;28;883;-32
2021/07/18 01:06:13;;;;;;;;;;;;;;;27.46;37.98;99806.47;5117795;28;769;-42
2021/07/18 01:08:39;;;;;;;;;;;;;;;27.50;37.89;99812.28;5117937;28;809;-33
2021/07/18 01:11:04;;;;;;;;;;;;;;;27.61;38.68;99810.84;5116939;28;1960;-36
2021/07/18 01:13:29;;;;;;;;;;;;;;;27.71;38.47;99810.44;5118210;28;952;-42
2021/07/18 01:15:55;;;;;;;;;;;;;;;27.54;37.57;99800.03;5118064;28;763;-42
2021/07/18 01:18:20;;;;;;;;;;;;;;;27.39;37.41;99808.34;5117308;28;827;-42
2021/07/18 01:20:45;;;;;;;;;;;;;;;27.34;37.33;99805.44;5099659;28;772;-29
2021/07/18 01:23:10;;;;;;;;;;;;;;;27.36;37.49;99800.69;5118174;28;826;-30
2021/07/18 01:25:36;;;;;;;;;;;;;;;27.29;37.40;99806.06;5099820;28;756;-41
2021/07/18 01:28:19;;;;;;;;;;;;;;;27.28;37.67;99804.38;5098606;28;946;-42
2021/07/18 01:30:44;;;;;;;;;;;;;;;27.36;37.64;99806.88;5097386;28;1962;-33
2021/07/18 01:33:10;;;;;;;;;;;;;;;27.48;37.67;99807.09;5078140;28;852;-42
2021/07/18 01:35:35;;;;;;;;;;;;;;;27.57;37.52;99807.72;5097582;28;779;-34
2021/07/18 01:38:01;;;;;;;;;;;;;;;27.45;37.50;99803.97;5097341;28;767;-42
2021/07/18 01:40:26;;;;;;;;;;;;;;;27.43;37.33;99804.19;5097359;28;844;-34
2021/07/18 01:42:51;;;;;;;;;;;;;;;27.38;37.46;99804.81;5114408;28;1005;-41
2021/07/18 01:45:17;;;;;;;;;;;;;;;27.25;37.81;99802.94;5117204;28;795;-34
2021/07/18 01:47:44;;;;;;;;;;;;;;;27.23;37.67;99810.41;5117188;28;1029;-41
2021/07/18 01:50:10;;;;;;;;;;;;;;;27.41;37.95;99798.16;5117408;28;1964;-38
2021/07/18 01:52:35;;;;;;;;;;;;;;;27.55;38.16;99806.25;5099694;28;1150;-34
2021/07/18 01:55:00;;;;;;;;;;;;;;;27.55;37.40;99812.50;5096863;28;772;-40
2021/07/18 01:57:25;;;;;;;;;;;;;;;27.45;37.60;99809.38;5110619;28;987;-40
2021/07/18 01:59:51;;;;;;;;;;;;;;;27.35;37.77;99804.41;5117197;28;803;-33
2021/07/18 02:02:16;;;;;;;;;;;;;;;27.40;37.39;99804.59;5116900;28;824;-33
2021/07/18 02:04:41;;;;;;;;;;;;;;;27.36;37.26;99809.59;5116856;28;787;-41
2021/07/18 02:07:07;;;;;;;;;;;;;;;27.42;37.47;99812.50;5117093;28;743;-33
2021/07/18 02:09:36;;;;;;;;;;;;;;;27.55;37.50;99814.34;5117032;28;1898;-41
2021/07/18 02:12:03;;;;;;;;;;;;;;;27.57;37.11;99807.72;5105621;28;1009;-30
2021/07/18 02:14:29;;;;;;;;;;;;;;;27.51;37.21;99817.47;5096149;28;824;-34
2021/07/18 02:16:55;;;;;;;;;;;;;;;27.38;37.01;99820.19;5096765;28;818;-40
2021/07/18 02:19:20;;;;;;;;;;;;;;;27.34;37.24;99816.25;5096669;28;810;-41
2021/07/18 02:21:45;;;;;;;;;;;;;;;27.36;37.11;99814.19;5096077;28;798;-31
2021/07/18 02:24:11;;;;;;;;;;;;;;;27.43;37.10;99815.00;5096998;28;799;-41
2021/07/18 02:26:37;;;;;;;;;;;;;;;27.56;37.41;99829.53;5103223;28;978;-40
2021/07/18 02:29:03;;;;;;;;;;;;;;;27.67;37.73;99826.22;5116820;28;775;-41
2021/07/18 02:31:28;;;;;;;;;;;;;;;27.57;37.56;99821.22;5121227;28;1905;-39
2021/07/18 02:33:53;;;;;;;;;;;;;;;27.47;37.60;99823.50;5121026;28;1627;-34
2021/07/18 02:36:18;;;;;;;;;;;;;;;27.39;37.80;99817.28;5120707;28;874;-41
2021/07/18 02:38:44;;;;;;;;;;;;;;;27.43;37.63;99819.56;5121198;28;759;-42
2021/07/18 02:41:09;;;;;;;;;;;;;;;27.37;37.79;99826.63;5120150;28;1009;-34
2021/07/18 02:43:34;;;;;;;;;;;;;;;27.47;37.73;99824.34;5121070;28;799;-31
2021/07/18 02:46:00;;;;;;;;;;;;;;;27.61;37.83;99827.88;5120956;28;834;-41
2021/07/18 02:48:25;;;;;;;;;;;;;;;27.63;37.53;99830.34;5120470;28;1247;-33
2021/07/18 02:50:50;;;;;;;;;;;;;;;27.49;37.52;99827.66;5121046;28;1914;-41
2021/07/18 02:53:16;;;;;;;;;;;;;;;27.45;37.50;99831.81;5120437;28;859;-29
2021/07/18 02:55:41;;;;;;;;;;;;;;;27.37;37.25;99832.88;5120161;28;819;-41
2021/07/18 02:58:07;;;;;;;;;;;;;;;27.38;37.72;99836.38;5120280;28;934;-30
2021/07/18 03:00:32;;;;;;;;;;;;;;;27.38;37.63;99836.38;5120406;28;809;-41
2021/07/18 03:02:57;;;;;;;;;;;;;;;27.46;37.85;99835.38;5120194;28;771;-33
2021/07/18 03:05:22;;;;;;;;;;;;;;;27.62;37.72;99826.00;5120617;28;871;-41
2021/07/18 03:07:48;;;;;;;;;;;;;;;27.57;37.64;99832.03;5120773;28;736;-32
2021/07/18 03:10:14;;;;;;;;;;;;;;;27.43;37.35;99833.06;5101460;28;1968;-32
2021/07/18 03:12:39;;;;;;;;;;;;;;;27.39;37.18;99835.38;5119902;28;938;-33
2021/07/18 03:15:05;;;;;;;;;;;;;;;27.43;37.33;99835.75;5120002;28;818;-39
2021/07/18 03:17:30;;;;;;;;;;;;;;;27.36;37.18;99835.78;5117625;28;1079;-40
2021/07/18 03:19:57;;;;;;;;;;;;;;;27.42;37.42;99839.50;5120384;28;764;-33
2021/07/18 03:22:24;;;;;;;;;;;;;;;27.55;37.36;99849.47;5119825;28;815;-33
2021/07/18 03:24:49;;;;;;;;;;;;;;;27.62;37.36;99848.47;5119936;28;787;-40
2021/07/18 03:27:14;;;;;;;;;;;;;;;27.50;37.20;99847.41;5119543;28;946;-29
2021/07/18 03:29:40;;;;;;;;;;;;;;;27.47;37.27;99842.41;5120072;28;1906;-33
2021/07/18 03:32:05;;;;;;;;;;;;;;;27.35;37.53;99836.81;5119679;28;926;-33
2021/07/18 03:34:31;;;;;;;;;;;;;;;27.35;37.48;99848.44;5119325;28;1031;-38
2021/07/18 03:36:56;;;;;;;;;;;;;;;27.28;37.71;99846.78;5119806;28;755;-35
2021/07/18 03:39:21;;;;;;;;;;;;;;;27.44;37.93;99846.38;5119955;28;767;-40
2021/07/18 03:41:47;;;;;;;;;;;;;;;27.44;39.54;99849.09;5119192;28;950;-37
2021/07/18 03:44:12;;;;;;;;;;;;;;;27.53;39.21;99851.56;5119489;28;740;-41
2021/07/18 03:46:37;;;;;;;;;;;;;;;27.41;37.80;99852.16;5119785;28;831;-40
2021/07/18 03:49:02;;;;;;;;;;;;;;;27.13;38.82;99856.72;5100837;28;1235;-40
2021/07/18 03:51:28;;;;;;;;;;;;;;;27.23;42.65;99850.91;5091247;28;1906;-38
2021/07/18 03:53:53;;;;;;;;;;;;;;;27.50;42.75;99850.94;5096834;28;1366;-38
2021/07/18 03:56:22;;;;;;;;;;;;;;;27.55;45.63;99847.63;5098414;28;856;-35
2021/07/18 03:58:47;;;;;;;;;;;;;;;27.62;43.66;99848.47;5099637;28;771;-36
2021/07/18 04:01:13;;;;;;;;;;;;;;;27.74;41.78;99843.25;5099155;28;779;-36
2021/07/18 04:03:38;;;;;;;;;;;;;;;27.39;41.66;99852.38;5098567;28;837;-34
2021/07/18 04:06:03;;;;;;;;;;;;;;;27.43;41.79;99847.41;5098876;28;738;-37
2021/07/18 04:08:29;;;;;;;;;;;;;;;23.01;54.09;99840.53;5099064;28;727;-34
2021/07/18 04:10:54;;;;;;;;;;;;;;;20.90;56.99;99834.00;5098341;28;1898;-37
2021/07/18 04:13:19;;;;;;;;;;;;;;;20.25;60.38;99833.59;5098728;28;825;-31
2021/07/18 04:15:44;;;;;;;;;;;;;;;20.28;61.12;99835.97;5098809;28;889;-41
2021/07/18 04:18:10;;;;;;;;;;;;;;;20.22;61.83;99832.06;5098464;28;818;-32
2021/07/18 04:20:35;;;;;;;;;;;;;;;20.16;62.76;99840.72;5098534;28;846;-37
2021/07/18 04:23:01;;;;;;;;;;;;;;;20.06;62.97;99825.66;5098595;28;881;-36
2021/07/18 04:25:26;;;;;;;;;;;;;;;19.91;64.81;99835.22;5098227;28;811;-35
2021/07/18 04:27:51;;;;;;;;;;;;;;;19.98;64.69;99838.09;5098175;28;927;-35
2021/07/18 04:30:16;;;;;;;;;;;;;;;19.82;65.62;99845.81;5098579;28;1970;-30
2021/07/18 04:32:42;;;;;;;;;;;;;;;19.93;65.51;99849.25;5098261;28;751;-27
2021/07/18 04:35:07;;;;;;;;;;;;;;;22.00;59.54;99852.66;5098607;28;838;-42
2021/07/18 04:37:35;;;;;;;;;;;;;;;22.85;55.82;99852.22;5098459;28;831;-41
2021/07/18 04:40:00;;;;;;;;;;;;;;;22.97;54.37;99860.69;5098247;28;815;-40
2021/07/18 04:42:25;;;;;;;;;;;;;;;23.05;54.18;99855.28;5097937;28;974;-38
2021/07/18 04:44:51;;;;;;;;;;;;;;;22.96;54.30;99861.69;5097623;28;813;-38
2021/07/18 04:47:16;;;;;;;;;;;;;;;23.16;54.90;99859.41;5098165;28;1273;-38
2021/07/18 04:49:41;;;;;;;;;;;;;;;23.69;57.09;99860.56;5097910;28;1972;-37
2021/07/18 04:52:06;;;;;;;;;;;;;;;23.86;57.16;99855.84;5097478;28;1202;-37
2021/07/18 04:54:32;;;;;;;;;;;;;;;23.88;57.66;99861.03;5097471;28;839;-38
2021/07/18 04:56:57;;;;;;;;;;;;;;;23.70;56.83;99856.84;5097083;28;958;-34
2021/07/18 04:59:22;;;;;;;;;;;;;;;22.74;57.13;99858.78;5097967;28;743;-39
2021/07/18 05:01:47;;;;;;;;;;;;;;;22.46;56.35;99852.03;5098143;28;859;-39
2021/07/18 05:04:13;;;;;;;;;;;;;;;22.27;54.90;99856.78;5097873;28;740;-37
2021/07/18 05:06:38;;;;;;;;;;;;;;;22.04;53.74;99853.16;5097548;28;779;-37
2021/07/18 05:09:03;;;;;;;;;;;;;;;22.06;53.41;99861.84;5097714;28;839;-38
2021/07/18 05:11:29;;;;;;;;;;;;;;;21.74;53.82;99859.00;5097279;28;1986;-35
2021/07/18 05:13:54;;;;;;;;;;;;;;;21.83;53.08;99858.03;5097599;28;823;-42
2021/07/18 05:16:19;;;;;;;;;;;;;;;21.49;53.42;99853.66;5097145;28;807;-38
2021/07/18 05:18:45;;;;;;;;;;;;;;;21.51;53.46;99855.19;5097379;28;1002;-38
2021/07/18 05:21:10;;;;;;;;;;;;;;;21.44;53.47;99846.13;5097354;28;1006;-38
2021/07/18 05:23:35;;;;;;;;;;;;;;;21.53;53.12;99847.84;5097238;28;825;-37
2021/07/18 05:26:01;;;;;;;;;;;;;;;21.58;53.42;99850.00;5096779;28;946;-41
2021/07/18 05:28:26;;;;;;;;;;;;;;;21.98;55.76;99852.00;5097088;28;1480;-39
2021/07/18 05:30:51;;;;;;;;;;;;;;;24.13;47.81;99853.56;5097252;28;1975;-40
2021/07/18 05:33:16;;;;;;;;;;;;;;;22.21;51.55;99857.47;5097265;28;803;-37
2021/07/18 05:35:42;;;;;;;;;;;;;;;21.64;52.29;99856.50;5096456;28;963;-38
2021/07/18 05:38:07;;;;;;;;;;;;;;;21.49;52.69;99859.00;5097352;28;742;-38
2021/07/18 05:40:32;;;;;;;;;;;;;;;21.80;52.53;99862.91;5097243;28;791;-40
2021/07/18 05:42:58;;;;;;;;;;;;;;;21.84;52.51;99869.56;5096820;28;963;-37
2021/07/18 05:45:23;;;;;;;;;;;;;;;21.90;52.79;99868.91;5097010;28;815;-41
2021/07/18 05:47:48;;;;;;;;;;;;;;;21.94;52.78;99866.75;5096552;28;1201;-38
2021/07/18 05:50:14;;;;;;;;;;;;;;;23.54;49.64;99871.25;5097096;28;1914;-41
2021/07/18 05:52:39;;;;;;;;;;;;;;;23.87;49.11;99873.66;5079147;28;1351;-37
2021/07/18 05:55:08;;;;;;;;;;;;;;;22.43;50.57;99864.94;5076724;28;744;-38
2021/07/18 05:57:33;;;;;;;;;;;;;;;21.87;52.49;99869.25;5091554;28;982;-41
2021/07/18 05:59:59;;;;;;;;;;;;;;;22.00;52.54;99874.91;5097356;28;801;-37
2021/07/18 06:02:24;;;;;;;;;;;;;;;22.48;51.90;99878.66;5096449;28;763;-40
2021/07/18 06:04:49;;;;;;;;;;;;;;;22.60;51.13;99871.06;5096068;28;783;-40
2021/07/18 06:07:15;;;;;;;;;;;;;;;22.79;51.63;99869.81;5096273;28;787;-36
2021/07/18 06:09:40;;;;;;;;;;;;;;;24.09;48.18;99869.22;5096335;28;1905;-43
2021/07/18 06:12:06;;;;;;;;;;;;;;;24.70;48.48;99875.44;5096404;28;966;-39
2021/07/18 06:14:31;;;;;;;;;;;;;;;22.93;50.26;99868.25;5096122;28;874;-41
2021/07/18 06:16:56;;;;;;;;;;;;;;;22.72;50.83;99861.66;5096160;28;788;-38
2021/07/18 06:19:22;;;;;;;;;;;;;;;22.45;51.23;99868.28;5096747;28;795;-39
2021/07/18 06:21:47;;;;;;;;;;;;;;;22.28;51.43;99868.31;5096581;28;1026;-38
2021/07/18 06:24:12;;;;;;;;;;;;;;;22.49;50.57;99864.22;5096083;28;826;-40
2021/07/18 06:26:37;;;;;;;;;;;;;;;22.59;51.09;99867.53;5095447;28;1405;-37
2021/07/18 06:29:03;;;;;;;;;;;;;;;23.51;50.24;99872.44;5096590;28;747;-42
2021/07/18 06:31:28;;;;;;;;;;;;;;;24.82;46.66;99862.31;5096453;28;1897;-34
2021/07/18 06:33:53;;;;;;;;;;;;;;;22.81;49.82;99865.13;5096617;28;894;-39
2021/07/18 06:36:19;;;;;;;;;;;;;;;22.37;51.05;99867.28;5096150;28;807;-38
2021/07/18 06:38:44;;;;;;;;;;;;;;;22.73;50.39;99865.19;5096512;28;810;-42
2021/07/18 06:41:09;;;;;;;;;;;;;;;22.71;51.10;99861.81;5095817;28;923;-40
2021/07/18 06:43:35;;;;;;;;;;;;;;;22.57;51.13;99868.75;5096464;28;767;-43
2021/07/18 06:46:00;;;;;;;;;;;;;;;22.63;51.76;99868.91;5096405;28;885;-42
2021/07/18 06:48:25;;;;;;;;;;;;;;;23.52;51.34;99873.28;5096192;28;1093;-44
2021/07/18 06:50:50;;;;;;;;;;;;;;;24.96;45.67;99869.75;5093976;28;1902;-37
2021/07/18 06:53:16;;;;;;;;;;;;;;;22.74;50.15;99858.78;5075990;28;756;-43
2021/07/18 06:55:41;;;;;;;;;;;;;;;22.47;50.73;99869.75;5076043;28;843;-43
2021/07/18 06:58:06;;;;;;;;;;;;;;;22.38;51.46;99866.28;5095383;28;947;-43
2021/07/18 07:00:31;;;;;;;;;;;;;;;22.42;51.12;99863.28;5096627;28;847;-35
2021/07/18 07:02:57;;;;;;;;;;;;;;;22.88;50.58;99865.28;5096107;28;763;-36
2021/07/18 07:05:22;;;;;;;;;;;;;;;22.74;51.54;99858.78;5095566;28;839;-39
2021/07/18 07:07:48;;;;;;;;;;;;;;;22.94;51.11;99863.75;5096355;28;807;-35
2021/07/18 07:10:16;;;;;;;;;;;;;;;24.11;48.44;99860.97;5095974;28;1894;-35
2021/07/18 07:12:42;;;;;;;;;;;;;;;24.25;48.42;99855.81;5096028;28;951;-38
2021/07/18 07:15:08;;;;;;;;;;;;;;;22.62;49.96;99861.03;5095916;28;744;-35
2021/07/18 07:17:33;;;;;;;;;;;;;;;22.56;49.56;99857.16;5099561;28;776;-35
2021/07/18 07:19:58;;;;;;;;;;;;;;;22.51;49.69;99856.84;5099741;28;875;-35
2021/07/18 07:22:23;;;;;;;;;;;;;;;22.52;50.00;99850.50;5099968;28;827;-34
2021/07/18 07:24:49;;;;;;;;;;;;;;;22.73;50.46;99852.63;5099581;28;811;-40
2021/07/18 07:27:14;;;;;;;;;;;;;;;22.75;51.27;99850.56;5099446;28;946;-44
2021/07/18 07:29:39;;;;;;;;;;;;;;;22.85;51.73;99853.06;5099661;28;1955;-37
2021/07/18 07:32:05;;;;;;;;;;;;;;;22.99;50.80;99858.66;5099362;28;775;-44
2021/07/18 07:34:30;;;;;;;;;;;;;;;22.85;50.91;99853.06;5099590;28;772;-36
2021/07/18 07:36:56;;;;;;;;;;;;;;;22.89;51.45;99856.19;5099490;28;747;-39
2021/07/18 07:39:21;;;;;;;;;;;;;;;23.01;51.17;99859.31;5099560;28;716;-45
2021/07/18 07:41:46;;;;;;;;;;;;;;;23.00;51.77;99857.66;5098879;28;950;-40
2021/07/18 07:44:12;;;;;;;;;;;;;;;23.04;50.92;99860.84;5099128;28;834;-38
2021/07/18 07:46:37;;;;;;;;;;;;;;;23.17;50.54;99860.25;5099785;28;870;-40
2021/07/18 07:49:02;;;;;;;;;;;;;;;22.96;50.82;99857.19;5098782;28;1272;-39
2021/07/18 07:51:27;;;;;;;;;;;;;;;23.07;50.31;99858.59;5090897;28;1981;-36
2021/07/18 07:53:53;;;;;;;;;;;;;;;22.92;50.35;99853.16;5079074;28;803;-37
2021/07/18 07:56:19;;;;;;;;;;;;;;;22.57;50.97;99861.50;5083557;28;1002;-35
2021/07/18 07:58:44;;;;;;;;;;;;;;;22.54;50.80;99859.19;5098628;28;829;-42
2021/07/18 08:01:09;;;;;;;;;;;;;;;22.36;50.88;99854.91;5099199;28;882;-39
2021/07/18 08:03:34;;;;;;;;;;;;;;;22.24;51.40;99858.94;5099114;28;823;-41
2021/07/18 08:06:00;;;;;;;;;;;;;;;22.38;51.00;99857.41;5098382;28;1539;-41
2021/07/18 08:08:25;;;;;;;;;;;;;;;22.20;51.39;99854.97;5098940;28;744;-42
2021/07/18 08:10:51;;;;;;;;;;;;;;;22.36;51.34;99852.22;5098323;28;1906;-40
2021/07/18 08:13:16;;;;;;;;;;;;;;;22.37;51.22;99859.25;5098756;28;802;-42
2021/07/18 08:15:42;;;;;;;;;;;;;;;22.52;51.50;99863.91;5098569;28;502;-42
2021/07/18 08:18:07;;;;;;;;;;;;;;;24.23;47.12;99863.22;5098764;28;755;-39
2021/07/18 08:20:33;;;;;;;;;;;;;;;23.57;48.42;99870.88;5098573;28;767;-40
2021/07/18 08:22:58;;;;;;;;;;;;;;;22.40;50.07;99863.44;5098518;28;972;-42
2021/07/18 08:25:24;;;;;;;;;;;;;;;22.14;50.91;99869.84;5098345;28;875;-37
2021/07/18 08:27:49;;;;;;;;;;;;;;;22.37;50.52;99858.44;5097273;28;1017;-39
2021/07/18 08:30:15;;;;;;;;;;;;;;;22.21;50.78;99868.19;5098577;28;1898;-41
2021/07/18 08:32:40;;;;;;;;;;;;;;;22.33;50.34;99863.28;5098658;28;771;-38
2021/07/18 08:35:06;;;;;;;;;;;;;;;22.13;51.03;99860.16;5097869;28;837;-38
2021/07/18 08:37:31;;;;;;;;;;;;;;;21.67;53.89;99863.38;5098056;28;800;-38
2021/07/18 08:39:56;;;;;;;;;;;;;;;21.39;54.92;99859.19;5097917;28;804;-42
2021/07/18 08:42:22;;;;;;;;;;;;;;;21.44;55.54;99862.19;5097691;28;1006;-42
2021/07/18 08:44:47;;;;;;;;;;;;;;;21.66;55.51;99862.53;5079882;28;817;-35
2021/07/18 08:47:12;;;;;;;;;;;;;;;21.69;56.33;99861.38;5098376;28;1095;-41
2021/07/18 08:49:38;;;;;;;;;;;;;;;21.67;57.11;99868.72;5097986;28;781;-39
2021/07/18 08:52:03;;;;;;;;;;;;;;;21.78;57.02;99865.75;5085216;28;1906;-36
2021/07/18 08:54:29;;;;;;;;;;;;;;;20.22;59.52;99856.09;5077656;28;855;-38
2021/07/18 08:56:59;;;;;;;;;;;;;;;19.74;59.03;99863.59;5087164;28;958;-38
2021/07/18 08:59:25;;;;;;;;;;;;;;;19.75;60.33;99858.09;5080887;28;772;-38
2021/07/18 09:01:50;;;;;;;;;;;;;;;19.76;60.62;99870.47;5097680;28;823;-41
2021/07/18 09:04:15;;;;;;;;;;;;;;;19.84;60.43;99861.69;5097754;28;814;-42
2021/07/18 09:06:50;;;;;;;;;;;;;;;19.80;60.53;99863.81;5098006;28;812;-39
2021/07/18 09:09:19;;;;;;;;;;;;;;;19.67;59.97;99860.72;5097476;28;852;-41
2021/07/18 09:11:53;;;;;;;;;;;;;;;19.76;59.95;99849.13;5097962;28;1902;-39
2021/07/18 09:14:18;;;;;;;;;;;;;;;19.72;60.06;99846.94;5097456;28;728;-36
2021/07/18 09:16:44;;;;;;;;;;;;;;;19.76;60.65;99849.13;5097498;28;785;-37
2021/07/18 09:19:16;;;;;;;;;;;;;;;20.15;59.86;99860.44;5097521;28;840;-42
2021/07/18 09:21:48;;;;;;;;;;;;;;;19.90;60.37;99845.03;5097601;28;799;-40
2021/07/18 09:24:32;;;;;;;;;;;;;;;19.80;60.55;99853.16;5097498;28;730;-46
2021/07/18 09:27:06;;;;;;;;;;;;;;;19.87;59.84;99845.34;5096540;28;982;-38
2021/07/18 09:29:32;;;;;;;;;;;;;;;19.83;60.07;99844.81;5096976;28;825;-38
2021/07/18 09:32:04;;;;;;;;;;;;;;;19.78;60.55;99849.81;5097333;28;1902;-37
2021/07/18 09:34:48;;;;;;;;;;;;;;;20.06;59.48;99849.69;5097642;28;771;-38
2021/07/18 09:37:15;;;;;;;;;;;;;;;19.85;59.71;99839.34;5097523;28;832;-36
2021/07/18 09:39:41;;;;;;;;;;;;;;;20.04;59.04;99843.66;5097056;28;772;-37
2021/07/18 09:42:06;;;;;;;;;;;;;;;20.44;57.49;99840.53;5096821;28;1017;-43
2021/07/18 09:44:41;;;;;;;;;;;;;;;19.89;58.39;99848.72;5096852;28;759;-38
2021/07/18 09:47:06;;;;;;;;;;;;;;;19.83;58.70;99844.00;5097079;28;975;-44
2021/07/18 09:49:35;;;;;;;;;;;;;;;19.80;58.64;99837.13;5096996;28;736;-33
2021/07/18 09:52:19;;;;;;;;;;;;;;;19.55;59.00;99852.13;5084329;28;1901;-37
2021/07/18 09:54:49;;;;;;;;;;;;;;;19.49;58.82;99850.06;5079455;28;1209;-41
2021/07/18 09:57:30;;;;;;;;;;;;;;;19.42;59.22;99852.50;5087388;28;1190;-40
2021/07/18 09:59:55;;;;;;;;;;;;;;;19.41;59.33;99846.34;5068902;28;1218;-40
2021/07/18 10:02:27;;;;;;;;;;;;;;;19.28;59.05;99854.75;5084736;28;1313;-41
2021/07/18 10:04:52;;;;;;;;;;;;;;;19.27;58.74;99860.22;5090932;28;1492;-43
2021/07/18 10:07:19;;;;;;;;;;;;;;;19.35;58.77;99859.47;5091096;28;1198;-39
2021/07/18 10:09:44;;;;;;;;;;;;;;;19.21;59.16;99859.84;5096948;28;1968;-40
2021/07/18 10:12:10;;;;;;;;;;;;;;;19.62;58.70;99857.69;5095971;28;994;-38
2021/07/18 10:14:35;;;;;;;;;;;;;;;19.46;59.00;99864.56;5096851;28;843;-40
2021/07/18 10:17:00;;;;;;;;;;;;;;;19.41;59.44;99862.34;5079129;28;763;-37
2021/07/18 10:19:25;;;;;;;;;;;;;;;19.57;59.40;99856.31;5078374;28;836;-38
2021/07/18 10:21:51;;;;;;;;;;;;;;;19.45;58.99;99862.91;5096459;28;740;-44
2021/07/18 10:24:16;;;;;;;;;;;;;;;19.27;59.53;99862.91;5067168;28;813;-41
2021/07/18 10:26:41;;;;;;;;;;;;;;;19.27;59.65;99860.22;5058509;28;956;-37
2021/07/18 10:29:09;;;;;;;;;;;;;;;19.44;59.34;99855.88;5076357;28;764;-40
2021/07/18 10:31:49;;;;;;;;;;;;;;;19.53;58.88;99856.78;5058119;28;1989;-36
2021/07/18 10:34:15;;;;;;;;;;;;;;;19.47;58.73;99854.75;5076535;28;781;-40
2021/07/18 10:36:40;;;;;;;;;;;;;;;19.41;58.87;99858.84;5076371;28;756;-42
2021/07/18 10:39:24;;;;;;;;;;;;;;;19.33;58.67;99856.94;5058776;28;791;-42
2021/07/18 10:41:49;;;;;;;;;;;;;;;19.50;58.63;99843.75;5084711;28;979;-37
2021/07/18 10:44:18;;;;;;;;;;;;;;;19.60;58.11;99849.84;5096038;28;851;-37
2021/07/18 10:46:46;;;;;;;;;;;;;;;19.41;58.92;99858.84;5096491;28;815;-41
2021/07/18 10:49:15;;;;;;;;;;;;;;;19.40;58.87;99849.19;5096131;28;1163;-33
2021/07/18 10:51:41;;;;;;;;;;;;;;;22.33;51.31;99843.69;5071215;28;1906;-42
2021/07/18 10:54:07;;;;;;;;;;;;;;;21.88;52.10;99853.03;5079993;28;779;-38
2021/07/18 10:56:42;;;;;;;;;;;;;;;20.36;56.96;99841.34;5080099;28;978;-35
2021/07/18 10:59:08;;;;;;;;;;;;;;;19.90;58.51;99846.91;5079812;28;859;-36
2021/07/18 11:01:34;;;;;;;;;;;;;;;19.70;59.46;99847.91;5061785;28;864;-37
2021/07/18 11:03:59;;;;;;;;;;;;;;;19.88;58.98;99851.53;5079778;28;771;-39
2021/07/18 11:06:28;;;;;;;;;;;;;;;19.71;59.60;99846.09;5080299;28;776;-39
2021/07/18 11:09:06;;;;;;;;;;;;;;;22.59;50.08;99848.78;5079361;28;841;-33
2021/07/18 11:11:43;;;;;;;;;;;;;;;21.75;52.05;99856.16;5085556;28;1967;-34
2021/07/18 11:14:21;;;;;;;;;;;;;;;20.45;56.63;99852.91;5100060;28;819;-32
2021/07/18 11:16:46;;;;;;;;;;;;;;;20.88;56.06;99852.91;5099506;28;812;-32
2021/07/18 11:19:30;;;;;;;;;;;;;;;23.39;46.60;99849.69;5100055;28;866;-39
2021/07/18 11:21:55;;;;;;;;;;;;;;;21.82;50.84;99852.84;5099505;28;947;-36
2021/07/18 11:24:39;;;;;;;;;;;;;;;23.68;45.21;99835.53;5099372;28;819;-38
2021/07/18 11:27:22;;;;;;;;;;;;;;;22.61;47.95;99854.00;5099743;28;994;-35
2021/07/18 11:29:48;;;;;;;;;;;;;;;23.23;46.80;99854.16;5099647;28;1909;-33
2021/07/18 11:32:19;;;;;;;;;;;;;;;23.87;45.64;99845.94;5099479;28;829;-35
2021/07/18 11:34:45;;;;;;;;;;;;;;;22.41;47.88;99838.31;5099735;28;780;-32
2021/07/18 11:37:11;;;;;;;;;;;;;;;24.04;41.65;99852.00;5099004;28;1417;-35
2021/07/18 11:39:37;;;;;;;;;;;;;;;22.94;47.37;99843.09;5099242;28;842;-35
2021/07/18 11:42:02;;;;;;;;;;;;;;;22.60;47.39;99847.81;5098901;28;943;-38
2021/07/18 11:44:28;;;;;;;;;;;;;;;23.90;42.30;99850.94;5099310;28;861;-34
2021/07/18 11:46:54;;;;;;;;;;;;;;;23.66;45.02;99842.09;5099323;28;996;-35
2021/07/18 11:49:22;;;;;;;;;;;;;;;22.47;49.19;99842.16;5099407;28;1300;-38
2021/07/18 11:51:47;;;;;;;;;;;;;;;24.20;41.41;99834.88;5080756;28;1913;-35
2021/07/18 11:54:13;;;;;;;;;;;;;;;22.82;45.98;99841.84;5099291;28;755;-33
2021/07/18 11:56:39;;;;;;;;;;;;;;;23.20;46.85;99846.47;5098897;28;986;-35
2021/07/18 11:59:06;;;;;;;;;;;;;;;24.30;39.55;99850.72;5099104;28;807;-35
2021/07/18 12:01:32;;;;;;;;;;;;;;;22.84;45.86;99853.22;5098660;28;772;-38
2021/07/18 12:03:57;;;;;;;;;;;;;;;23.68;43.97;99856.19;5098008;28;735;-35
2021/07/18 12:06:23;;;;;;;;;;;;;;;24.50;40.91;99852.84;5098818;28;827;-33
2021/07/18 12:08:48;;;;;;;;;;;;;;;22.48;45.55;99859.88;5099371;28;692;-35
2021/07/18 12:11:14;;;;;;;;;;;;;;;24.03;40.92;99856.53;5098569;28;1906;-35
2021/07/18 12:13:42;;;;;;;;;;;;;;;23.46;43.57;99846.13;5080096;28;1363;-35
2021/07/18 12:16:07;;;;;;;;;;;;;;;22.60;48.11;99860.34;5099054;28;752;-36
2021/07/18 12:18:33;;;;;;;;;;;;;;;24.28;39.16;99850.91;5098915;28;781;-39
2021/07/18 12:21:21;;;;;;;;;;;;;;;22.84;45.04;99855.88;5098539;28;832;-32
2021/07/18 12:24:13;;;;;;;;;;;;;;;23.30;45.46;99862.31;5087273;28;2167;-38
2021/07/18 12:26:38;;;;;;;;;;;;;;;24.29;42.03;99855.25;5066193;28;1083;-32
2021/07/18 12:29:04;;;;;;;;;;;;;;;22.29;46.03;99859.28;5098214;28;826;-34
2021/07/18 12:31:30;;;;;;;;;;;;;;;24.19;39.38;99854.72;5098605;28;1890;-36
2021/07/18 12:33:55;;;;;;;;;;;;;;;23.37;42.69;99865.97;5098114;28;847;-38
2021/07/18 12:36:20;;;;;;;;;;;;;;;23.39;44.92;99865.78;5098581;28;1568;-35
2021/07/18 12:38:45;;;;;;;;;;;;;;;24.57;39.40;99856.44;5098593;28;811;-39
2021/07/18 12:41:11;;;;;;;;;;;;;;;22.87;44.93;99863.59;5097450;28;910;-37
2021/07/18 12:43:37;;;;;;;;;;;;;;;23.94;41.86;99861.13;5098182;28;812;-38
2021/07/18 12:46:03;;;;;;;;;;;;;;;24.42;41.09;99864.53;5098290;28;771;-38
2021/07/18 12:48:28;;;;;;;;;;;;;;;22.51;45.51;99870.25;5098091;28;1217;-39
2021/07/18 12:50:54;;;;;;;;;;;;;;;24.30;39.13;99854.25;5095038;28;1909;-41
2021/07/18 12:53:19;;;;;;;;;;;;;;;23.31;43.03;99867.50;5059044;28;865;-40
2021/07/18 12:55:57;;;;;;;;;;;;;;;23.15;44.77;99864.94;5077809;28;970;-38
2021/07/18 12:58:27;;;;;;;;;;;;;;;24.52;37.78;99856.19;5077519;28;865;-38
2021/07/18 13:01:00;;;;;;;;;;;;;;;22.41;43.72;99865.09;5077432;28;835;-39